sensor_id;sensor_type;location;lat;lon;timestamp;temperature;humidity
11744;DHT22;5929;51.906;7.674;2023-08-08T00:01:11;13.20;99.90
11744;DHT22;5929;51.906;7.674;2023-08-08T00:03:37;13.30;99.90
11744;DHT22;5929;51.906;7.674;2023-08-08T00:06:04;13.30;99.90
11744;DHT22;5929;51.906;7.674;2023-08-08T00:08:31;13.30;99.90
11744;DHT22;5929;51.906;7.674;2023-08-08T00:10:58;13.40;99.90
11744;DHT22;5929;51.906;7.674;2023-08-08T00:13:28;13.40;99.90
11744;DHT22;5929;51.906;7.674;2023-08-08T00:15:55;13.40;99.90
11744;DHT22;5929;51.906;7.674;2023-08-08T00:18:22;13.40;99.90
11744;DHT22;5929;51.906;7.674;2023-08-08T00:20:49;13.40;99.90
11744;DHT22;5929;51.906;7.674;2023-08-08T00:23:16;13.30;99.90
11744;DHT22;5929;51.906;7.674;2023-08-08T00:25:43;13.10;99.90
11744;DHT22;5929;51.906;7.674;2023-08-08T00:28:15;12.90;99.90
11744;DHT22;5929;51.906;7.674;2023-08-08T00:30:43;12.90;99.90
11744;DHT22;5929;51.906;7.674;2023-08-08T00:33:10;12.80;99.90
11744;DHT22;5929;51.906;7.674;2023-08-08T00:35:37;12.70;99.90
11744;DHT22;5929;51.906;7.674;2023-08-08T00:38:04;12.70;99.90
11744;DHT22;5929;51.906;7.674;2023-08-08T00:40:31;12.60;99.90
11744;DHT22;5929;51.906;7.674;2023-08-08T00:42:57;12.60;99.90
11744;DHT22;5929;51.906;7.674;2023-08-08T00:45:24;12.60;99.90
11744;DHT22;5929;51.906;7.674;2023-08-08T00:47:53;12.60;99.90
11744;DHT22;5929;51.906;7.674;2023-08-08T00:50:20;12.60;99.90
11744;DHT22;5929;51.906;7.674;2023-08-08T00:52:48;12.50;99.90
11744;DHT22;5929;51.906;7.674;2023-08-08T00:55:15;12.50;99.90
11744;DHT22;5929;51.906;7.674;2023-08-08T00:57:42;12.60;99.90
11744;DHT22;5929;51.906;7.674;2023-08-08T01:00:09;12.60;99.90
11744;DHT22;5929;51.906;7.674;2023-08-08T01:02:37;12.60;99.90
11744;DHT22;5929;51.906;7.674;2023-08-08T01:05:06;12.60;99.90
11744;DHT22;5929;51.906;7.674;2023-08-08T01:07:38;12.60;99.90
11744;DHT22;5929;51.906;7.674;2023-08-08T01:10:09;12.60;99.90
11744;DHT22;5929;51.906;7.674;2023-08-08T01:12:41;12.60;99.90
11744;DHT22;5929;51.906;7.674;2023-08-08T01:15:09;12.60;99.90
11744;DHT22;5929;51.906;7.674;2023-08-08T01:17:37;12.40;99.90
11744;DHT22;5929;51.906;7.674;2023-08-08T01:20:07;12.30;99.90
11744;DHT22;5929;51.906;7.674;2023-08-08T01:22:39;12.30;99.90
11744;DHT22;5929;51.906;7.674;2023-08-08T01:25:08;12.30;99.90
11744;DHT22;5929;51.906;7.674;2023-08-08T01:27:36;12.20;99.90
11744;DHT22;5929;51.906;7.674;2023-08-08T01:30:03;12.20;99.90
11744;DHT22;5929;51.906;7.674;2023-08-08T01:32:30;12.20;99.90
11744;DHT22;5929;51.906;7.674;2023-08-08T01:34:57;12.20;99.90
11744;DHT22;5929;51.906;7.674;2023-08-08T01:37:29;12.10;99.90
11744;DHT22;5929;51.906;7.674;2023-08-08T01:40:00;12.10;99.90
11744;DHT22;5929;51.906;7.674;2023-08-08T01:42:29;12.10;99.90
11744;DHT22;5929;51.906;7.674;2023-08-08T01:44:56;12.10;99.90
11744;DHT22;5929;51.906;7.674;2023-08-08T01:47:24;12.10;99.90
11744;DHT22;5929;51.906;7.674;2023-08-08T01:49:51;12.10;99.90
11744;DHT22;5929;51.906;7.674;2023-08-08T01:52:18;12.10;99.90
11744;DHT22;5929;51.906;7.674;2023-08-08T01:54:44;12.10;99.90
11744;DHT22;5929;51.906;7.674;2023-08-08T01:57:11;12.10;99.90
11744;DHT22;5929;51.906;7.674;2023-08-08T01:59:39;12.10;99.90
11744;DHT22;5929;51.906;7.674;2023-08-08T02:02:06;12.00;99.90
11744;DHT22;5929;51.906;7.674;2023-08-08T02:04:33;12.00;99.90
11744;DHT22;5929;51.906;7.674;2023-08-08T02:07:00;12.00;99.90
11744;DHT22;5929;51.906;7.674;2023-08-08T02:09:27;12.00;99.90
11744;DHT22;5929;51.906;7.674;2023-08-08T02:11:54;12.00;99.90
11744;DHT22;5929;51.906;7.674;2023-08-08T02:14:21;12.10;99.90
11744;DHT22;5929;51.906;7.674;2023-08-08T02:16:49;12.10;99.90
11744;DHT22;5929;51.906;7.674;2023-08-08T02:19:16;12.10;99.90
11744;DHT22;5929;51.906;7.674;2023-08-08T02:21:43;12.10;99.90
11744;DHT22;5929;51.906;7.674;2023-08-08T02:24:09;12.20;99.90
11744;DHT22;5929;51.906;7.674;2023-08-08T02:26:36;12.20;99.90
11744;DHT22;5929;51.906;7.674;2023-08-08T02:29:03;12.30;99.90
11744;DHT22;5929;51.906;7.674;2023-08-08T02:31:30;12.30;99.90
11744;DHT22;5929;51.906;7.674;2023-08-08T02:33:58;12.40;99.90
11744;DHT22;5929;51.906;7.674;2023-08-08T02:36:25;12.40;99.90
11744;DHT22;5929;51.906;7.674;2023-08-08T02:38:54;12.40;99.90
11744;DHT22;5929;51.906;7.674;2023-08-08T02:41:21;12.40;99.90
11744;DHT22;5929;51.906;7.674;2023-08-08T02:43:48;12.40;99.90
11744;DHT22;5929;51.906;7.674;2023-08-08T02:46:15;12.40;99.90
11744;DHT22;5929;51.906;7.674;2023-08-08T02:48:41;12.40;99.90
11744;DHT22;5929;51.906;7.674;2023-08-08T02:51:10;12.40;99.90
11744;DHT22;5929;51.906;7.674;2023-08-08T02:53:36;12.50;99.90
11744;DHT22;5929;51.906;7.674;2023-08-08T02:56:03;12.50;99.90
11744;DHT22;5929;51.906;7.674;2023-08-08T02:58:30;12.50;99.90
11744;DHT22;5929;51.906;7.674;2023-08-08T03:00:57;12.50;99.90
11744;DHT22;5929;51.906;7.674;2023-08-08T03:03:24;12.60;99.90
11744;DHT22;5929;51.906;7.674;2023-08-08T03:05:51;12.60;99.90
11744;DHT22;5929;51.906;7.674;2023-08-08T03:08:19;12.60;99.90
11744;DHT22;5929;51.906;7.674;2023-08-08T03:10:46;12.60;99.90
11744;DHT22;5929;51.906;7.674;2023-08-08T03:13:13;12.60;99.90
11744;DHT22;5929;51.906;7.674;2023-08-08T03:15:39;12.60;99.90
11744;DHT22;5929;51.906;7.674;2023-08-08T03:18:06;12.60;99.90
11744;DHT22;5929;51.906;7.674;2023-08-08T03:20:33;12.50;99.90
11744;DHT22;5929;51.906;7.674;2023-08-08T03:23:00;12.50;99.90
11744;DHT22;5929;51.906;7.674;2023-08-08T03:25:28;12.50;99.90
11744;DHT22;5929;51.906;7.674;2023-08-08T03:27:55;12.50;99.90
11744;DHT22;5929;51.906;7.674;2023-08-08T03:30:22;12.50;99.90
11744;DHT22;5929;51.906;7.674;2023-08-08T03:32:48;12.50;99.90
11744;DHT22;5929;51.906;7.674;2023-08-08T03:35:15;12.50;99.90
11744;DHT22;5929;51.906;7.674;2023-08-08T03:37:42;12.60;99.90
11744;DHT22;5929;51.906;7.674;2023-08-08T03:40:10;12.50;99.90
11744;DHT22;5929;51.906;7.674;2023-08-08T03:42:39;12.50;99.90
11744;DHT22;5929;51.906;7.674;2023-08-08T03:45:06;12.50;99.90
11744;DHT22;5929;51.906;7.674;2023-08-08T03:47:33;12.50;99.90
11744;DHT22;5929;51.906;7.674;2023-08-08T03:50:00;12.50;99.90
11744;DHT22;5929;51.906;7.674;2023-08-08T03:52:29;12.50;99.90
11744;DHT22;5929;51.906;7.674;2023-08-08T03:54:56;12.50;99.90
11744;DHT22;5929;51.906;7.674;2023-08-08T03:57:23;12.60;99.90
11744;DHT22;5929;51.906;7.674;2023-08-08T03:59:52;12.60;99.90
11744;DHT22;5929;51.906;7.674;2023-08-08T04:02:18;12.50;99.90
11744;DHT22;5929;51.906;7.674;2023-08-08T04:04:45;12.60;99.90
11744;DHT22;5929;51.906;7.674;2023-08-08T04:07:12;12.60;99.90
11744;DHT22;5929;51.906;7.674;2023-08-08T04:09:39;12.60;99.90
11744;DHT22;5929;51.906;7.674;2023-08-08T04:12:06;12.50;99.90
11744;DHT22;5929;51.906;7.674;2023-08-08T04:14:33;12.50;99.90
11744;DHT22;5929;51.906;7.674;2023-08-08T04:17:02;12.60;99.90
11744;DHT22;5929;51.906;7.674;2023-08-08T04:19:30;12.60;99.90
11744;DHT22;5929;51.906;7.674;2023-08-08T04:21:57;12.60;99.90
11744;DHT22;5929;51.906;7.674;2023-08-08T04:24:25;12.60;99.90
11744;DHT22;5929;51.906;7.674;2023-08-08T04:26:52;12.60;99.90
11744;DHT22;5929;51.906;7.674;2023-08-08T04:29:19;12.60;99.90
11744;DHT22;5929;51.906;7.674;2023-08-08T04:31:45;12.60;99.90
11744;DHT22;5929;51.906;7.674;2023-08-08T04:34:14;12.70;99.90
11744;DHT22;5929;51.906;7.674;2023-08-08T04:36:40;12.70;99.90
11744;DHT22;5929;51.906;7.674;2023-08-08T04:39:07;12.80;99.90
11744;DHT22;5929;51.906;7.674;2023-08-08T04:41:34;12.80;99.90
11744;DHT22;5929;51.906;7.674;2023-08-08T04:44:01;12.80;99.90
11744;DHT22;5929;51.906;7.674;2023-08-08T04:46:27;12.80;99.90
11744;DHT22;5929;51.906;7.674;2023-08-08T04:48:54;12.90;99.90
11744;DHT22;5929;51.906;7.674;2023-08-08T04:51:22;12.90;99.90
11744;DHT22;5929;51.906;7.674;2023-08-08T04:53:49;12.90;99.90
11744;DHT22;5929;51.906;7.674;2023-08-08T04:56:16;13.00;99.90
11744;DHT22;5929;51.906;7.674;2023-08-08T04:58:43;13.00;99.90
11744;DHT22;5929;51.906;7.674;2023-08-08T05:01:10;13.00;99.90
11744;DHT22;5929;51.906;7.674;2023-08-08T05:03:39;13.00;99.90
11744;DHT22;5929;51.906;7.674;2023-08-08T05:06:07;13.00;99.90
11744;DHT22;5929;51.906;7.674;2023-08-08T05:08:35;13.00;99.90
11744;DHT22;5929;51.906;7.674;2023-08-08T05:11:02;13.10;99.90
11744;DHT22;5929;51.906;7.674;2023-08-08T05:13:28;13.10;99.90
11744;DHT22;5929;51.906;7.674;2023-08-08T05:15:55;13.10;99.90
11744;DHT22;5929;51.906;7.674;2023-08-08T05:18:22;13.20;99.90
11744;DHT22;5929;51.906;7.674;2023-08-08T05:20:49;13.20;99.90
11744;DHT22;5929;51.906;7.674;2023-08-08T05:23:16;13.20;99.90
11744;DHT22;5929;51.906;7.674;2023-08-08T05:25:46;13.20;99.90
11744;DHT22;5929;51.906;7.674;2023-08-08T05:28:13;13.30;99.90
11744;DHT22;5929;51.906;7.674;2023-08-08T05:30:40;13.30;99.90
11744;DHT22;5929;51.906;7.674;2023-08-08T05:33:06;13.30;99.90
11744;DHT22;5929;51.906;7.674;2023-08-08T05:35:33;13.30;99.90
11744;DHT22;5929;51.906;7.674;2023-08-08T05:38:00;13.40;99.90
11744;DHT22;5929;51.906;7.674;2023-08-08T05:40:29;13.30;99.90
11744;DHT22;5929;51.906;7.674;2023-08-08T05:42:57;13.40;99.90
11744;DHT22;5929;51.906;7.674;2023-08-08T05:45:24;13.40;99.90
11744;DHT22;5929;51.906;7.674;2023-08-08T05:47:51;13.50;99.90
11744;DHT22;5929;51.906;7.674;2023-08-08T05:50:18;13.60;99.90
11744;DHT22;5929;51.906;7.674;2023-08-08T05:52:45;13.60;99.90
11744;DHT22;5929;51.906;7.674;2023-08-08T05:55:14;13.70;99.90
11744;DHT22;5929;51.906;7.674;2023-08-08T05:57:40;13.80;99.90
11744;DHT22;5929;51.906;7.674;2023-08-08T06:00:10;13.90;99.90
11744;DHT22;5929;51.906;7.674;2023-08-08T06:02:37;13.90;99.90
11744;DHT22;5929;51.906;7.674;2023-08-08T06:05:05;14.00;99.90
11744;DHT22;5929;51.906;7.674;2023-08-08T06:07:35;14.00;99.90
11744;DHT22;5929;51.906;7.674;2023-08-08T06:10:02;14.10;99.90
11744;DHT22;5929;51.906;7.674;2023-08-08T06:12:29;14.00;99.90
11744;DHT22;5929;51.906;7.674;2023-08-08T06:14:55;14.20;99.90
11744;DHT22;5929;51.906;7.674;2023-08-08T06:17:23;14.40;99.90
11744;DHT22;5929;51.906;7.674;2023-08-08T06:19:50;14.40;99.90
11744;DHT22;5929;51.906;7.674;2023-08-08T06:22:19;14.50;99.90
11744;DHT22;5929;51.906;7.674;2023-08-08T06:24:46;14.50;99.90
11744;DHT22;5929;51.906;7.674;2023-08-08T06:27:13;14.50;99.90
11744;DHT22;5929;51.906;7.674;2023-08-08T06:29:40;14.50;99.90
11744;DHT22;5929;51.906;7.674;2023-08-08T06:32:07;14.50;99.90
11744;DHT22;5929;51.906;7.674;2023-08-08T06:34:35;14.50;99.90
11744;DHT22;5929;51.906;7.674;2023-08-08T06:37:02;14.50;99.90
11744;DHT22;5929;51.906;7.674;2023-08-08T06:39:31;14.50;99.90
11744;DHT22;5929;51.906;7.674;2023-08-08T06:41:58;14.50;99.90
11744;DHT22;5929;51.906;7.674;2023-08-08T06:44:25;14.50;99.90
11744;DHT22;5929;51.906;7.674;2023-08-08T06:46:51;14.60;99.90
11744;DHT22;5929;51.906;7.674;2023-08-08T06:49:18;14.80;99.90
11744;DHT22;5929;51.906;7.674;2023-08-08T06:51:46;14.70;99.90
11744;DHT22;5929;51.906;7.674;2023-08-08T06:54:13;14.80;99.90
11744;DHT22;5929;51.906;7.674;2023-08-08T06:56:40;14.80;99.90
11744;DHT22;5929;51.906;7.674;2023-08-08T06:59:07;14.90;99.90
11744;DHT22;5929;51.906;7.674;2023-08-08T07:01:33;14.90;99.90
11744;DHT22;5929;51.906;7.674;2023-08-08T07:04:01;14.90;99.90
11744;DHT22;5929;51.906;7.674;2023-08-08T07:06:28;14.80;99.90
11744;DHT22;5929;51.906;7.674;2023-08-08T07:08:56;14.80;99.90
11744;DHT22;5929;51.906;7.674;2023-08-08T07:11:23;14.90;99.90
11744;DHT22;5929;51.906;7.674;2023-08-08T07:13:50;14.80;99.90
11744;DHT22;5929;51.906;7.674;2023-08-08T07:16:17;14.80;99.90
11744;DHT22;5929;51.906;7.674;2023-08-08T07:18:44;14.80;99.90
11744;DHT22;5929;51.906;7.674;2023-08-08T07:21:11;14.80;99.90
11744;DHT22;5929;51.906;7.674;2023-08-08T07:23:37;14.70;99.90
11744;DHT22;5929;51.906;7.674;2023-08-08T07:26:05;14.70;99.90
11744;DHT22;5929;51.906;7.674;2023-08-08T07:28:32;14.70;99.90
11744;DHT22;5929;51.906;7.674;2023-08-08T07:30:59;14.80;99.90
11744;DHT22;5929;51.906;7.674;2023-08-08T07:33:26;14.90;99.90
11744;DHT22;5929;51.906;7.674;2023-08-08T07:35:53;15.00;99.90
11744;DHT22;5929;51.906;7.674;2023-08-08T07:38:20;15.10;99.90
11744;DHT22;5929;51.906;7.674;2023-08-08T07:40:47;15.20;99.90
11744;DHT22;5929;51.906;7.674;2023-08-08T07:43:15;15.20;99.90
11744;DHT22;5929;51.906;7.674;2023-08-08T07:45:42;15.20;99.90
11744;DHT22;5929;51.906;7.674;2023-08-08T07:48:09;15.10;99.90
11744;DHT22;5929;51.906;7.674;2023-08-08T07:50:36;15.10;99.90
11744;DHT22;5929;51.906;7.674;2023-08-08T07:53:03;15.00;99.90
11744;DHT22;5929;51.906;7.674;2023-08-08T07:55:30;14.90;99.90
11744;DHT22;5929;51.906;7.674;2023-08-08T07:57:59;14.90;99.90
11744;DHT22;5929;51.906;7.674;2023-08-08T08:00:27;14.90;99.90
11744;DHT22;5929;51.906;7.674;2023-08-08T08:02:56;14.80;99.90
11744;DHT22;5929;51.906;7.674;2023-08-08T08:05:25;14.80;99.90
11744;DHT22;5929;51.906;7.674;2023-08-08T08:07:52;14.80;99.90
11744;DHT22;5929;51.906;7.674;2023-08-08T08:10:19;14.80;99.90
11744;DHT22;5929;51.906;7.674;2023-08-08T08:12:46;14.90;99.90
11744;DHT22;5929;51.906;7.674;2023-08-08T08:15:13;15.00;99.90
11744;DHT22;5929;51.906;7.674;2023-08-08T08:17:41;15.10;99.90
11744;DHT22;5929;51.906;7.674;2023-08-08T08:20:09;15.10;99.90
11744;DHT22;5929;51.906;7.674;2023-08-08T08:22:38;15.10;99.90
11744;DHT22;5929;51.906;7.674;2023-08-08T08:25:05;14.70;99.90
11744;DHT22;5929;51.906;7.674;2023-08-08T08:27:34;14.30;99.90
11744;DHT22;5929;51.906;7.674;2023-08-08T08:30:05;14.10;99.90
11744;DHT22;5929;51.906;7.674;2023-08-08T08:32:32;14.00;99.90
11744;DHT22;5929;51.906;7.674;2023-08-08T08:35:01;14.00;99.90
11744;DHT22;5929;51.906;7.674;2023-08-08T08:37:29;14.00;99.90
11744;DHT22;5929;51.906;7.674;2023-08-08T08:39:56;14.00;99.90
11744;DHT22;5929;51.906;7.674;2023-08-08T08:42:23;14.10;99.90
11744;DHT22;5929;51.906;7.674;2023-08-08T08:44:51;14.30;99.90
11744;DHT22;5929;51.906;7.674;2023-08-08T08:47:21;14.50;99.90
11744;DHT22;5929;51.906;7.674;2023-08-08T08:49:49;14.50;99.90
11744;DHT22;5929;51.906;7.674;2023-08-08T08:52:20;14.60;99.90
11744;DHT22;5929;51.906;7.674;2023-08-08T08:54:48;14.70;99.90
11744;DHT22;5929;51.906;7.674;2023-08-08T08:57:15;14.90;99.90
11744;DHT22;5929;51.906;7.674;2023-08-08T08:59:42;15.30;99.90
11744;DHT22;5929;51.906;7.674;2023-08-08T09:02:10;15.70;99.90
11744;DHT22;5929;51.906;7.674;2023-08-08T09:04:37;15.80;99.90
11744;DHT22;5929;51.906;7.674;2023-08-08T09:07:06;16.10;99.90
11744;DHT22;5929;51.906;7.674;2023-08-08T09:09:35;16.00;99.90
11744;DHT22;5929;51.906;7.674;2023-08-08T09:12:04;16.00;99.90
11744;DHT22;5929;51.906;7.674;2023-08-08T09:14:33;16.10;99.90
11744;DHT22;5929;51.906;7.674;2023-08-08T09:17:00;16.10;99.90
11744;DHT22;5929;51.906;7.674;2023-08-08T09:19:28;16.30;99.90
11744;DHT22;5929;51.906;7.674;2023-08-08T09:21:54;16.50;99.90
11744;DHT22;5929;51.906;7.674;2023-08-08T09:24:21;16.60;99.90
11744;DHT22;5929;51.906;7.674;2023-08-08T09:26:49;16.90;99.90
11744;DHT22;5929;51.906;7.674;2023-08-08T09:29:16;16.90;99.90
11744;DHT22;5929;51.906;7.674;2023-08-08T09:31:43;17.20;99.90
11744;DHT22;5929;51.906;7.674;2023-08-08T09:34:12;17.20;99.90
11744;DHT22;5929;51.906;7.674;2023-08-08T09:36:40;17.20;99.90
11744;DHT22;5929;51.906;7.674;2023-08-08T09:39:07;16.90;99.90
11744;DHT22;5929;51.906;7.674;2023-08-08T09:41:34;16.90;99.90
11744;DHT22;5929;51.906;7.674;2023-08-08T09:44:03;16.80;99.90
11744;DHT22;5929;51.906;7.674;2023-08-08T09:46:30;16.80;99.90
11744;DHT22;5929;51.906;7.674;2023-08-08T09:48:58;16.70;99.90
11744;DHT22;5929;51.906;7.674;2023-08-08T09:51:25;16.80;99.90
11744;DHT22;5929;51.906;7.674;2023-08-08T09:53:53;17.10;99.90
11744;DHT22;5929;51.906;7.674;2023-08-08T09:56:22;17.40;99.90
11744;DHT22;5929;51.906;7.674;2023-08-08T09:58:49;17.60;99.90
11744;DHT22;5929;51.906;7.674;2023-08-08T10:01:19;17.70;99.90
11744;DHT22;5929;51.906;7.674;2023-08-08T10:03:48;17.70;99.90
11744;DHT22;5929;51.906;7.674;2023-08-08T10:06:15;17.90;99.90
11744;DHT22;5929;51.906;7.674;2023-08-08T10:08:42;18.10;99.90
11744;DHT22;5929;51.906;7.674;2023-08-08T10:11:10;18.30;99.90
11744;DHT22;5929;51.906;7.674;2023-08-08T10:13:37;18.40;99.90
11744;DHT22;5929;51.906;7.674;2023-08-08T10:16:07;18.50;99.90
11744;DHT22;5929;51.906;7.674;2023-08-08T10:18:36;18.40;99.90
11744;DHT22;5929;51.906;7.674;2023-08-08T10:21:04;18.70;99.90
11744;DHT22;5929;51.906;7.674;2023-08-08T10:23:36;18.60;99.90
11744;DHT22;5929;51.906;7.674;2023-08-08T10:26:05;18.40;99.90
11744;DHT22;5929;51.906;7.674;2023-08-08T10:28:33;18.50;99.90
11744;DHT22;5929;51.906;7.674;2023-08-08T10:31:01;18.70;99.90
11744;DHT22;5929;51.906;7.674;2023-08-08T10:33:42;19.00;99.90
11744;DHT22;5929;51.906;7.674;2023-08-08T10:36:09;19.10;99.90
11744;DHT22;5929;51.906;7.674;2023-08-08T10:38:42;18.90;99.90
11744;DHT22;5929;51.906;7.674;2023-08-08T10:41:11;18.70;99.90
11744;DHT22;5929;51.906;7.674;2023-08-08T10:43:38;18.50;99.90
11744;DHT22;5929;51.906;7.674;2023-08-08T10:46:06;18.60;99.90
11744;DHT22;5929;51.906;7.674;2023-08-08T10:48:33;18.60;99.90
11744;DHT22;5929;51.906;7.674;2023-08-08T10:51:01;18.30;99.90
11744;DHT22;5929;51.906;7.674;2023-08-08T10:53:29;18.20;99.90
11744;DHT22;5929;51.906;7.674;2023-08-08T10:55:59;18.20;99.90
11744;DHT22;5929;51.906;7.674;2023-08-08T10:58:36;18.50;99.90
11744;DHT22;5929;51.906;7.674;2023-08-08T11:01:04;18.90;99.90
11744;DHT22;5929;51.906;7.674;2023-08-08T11:03:34;18.80;99.90
11744;DHT22;5929;51.906;7.674;2023-08-08T11:06:03;19.00;99.90
11744;DHT22;5929;51.906;7.674;2023-08-08T11:08:30;19.30;99.90
11744;DHT22;5929;51.906;7.674;2023-08-08T11:10:58;19.60;99.90
11744;DHT22;5929;51.906;7.674;2023-08-08T11:13:25;19.60;99.90
11744;DHT22;5929;51.906;7.674;2023-08-08T11:15:52;19.70;99.90
11744;DHT22;5929;51.906;7.674;2023-08-08T11:18:19;21.00;99.90
11744;DHT22;5929;51.906;7.674;2023-08-08T11:20:46;22.20;99.90
11744;DHT22;5929;51.906;7.674;2023-08-08T11:23:15;22.70;99.10
11744;DHT22;5929;51.906;7.674;2023-08-08T11:25:44;22.00;99.40
11744;DHT22;5929;51.906;7.674;2023-08-08T11:28:12;21.60;99.90
11744;DHT22;5929;51.906;7.674;2023-08-08T11:30:43;20.90;99.90
11744;DHT22;5929;51.906;7.674;2023-08-08T11:33:13;21.10;99.70
11744;DHT22;5929;51.906;7.674;2023-08-08T11:35:44;21.70;98.80
11744;DHT22;5929;51.906;7.674;2023-08-08T11:38:15;22.30;98.30
11744;DHT22;5929;51.906;7.674;2023-08-08T11:40:43;22.10;98.30
11744;DHT22;5929;51.906;7.674;2023-08-08T11:43:10;22.30;99.10
11744;DHT22;5929;51.906;7.674;2023-08-08T11:45:39;22.60;97.70
11744;DHT22;5929;51.906;7.674;2023-08-08T11:48:08;21.60;97.60
11744;DHT22;5929;51.906;7.674;2023-08-08T11:50:37;22.60;97.40
11744;DHT22;5929;51.906;7.674;2023-08-08T11:53:04;23.40;96.50
11744;DHT22;5929;51.906;7.674;2023-08-08T11:55:33;24.30;95.60
11744;DHT22;5929;51.906;7.674;2023-08-08T11:58:00;23.90;95.60
11744;DHT22;5929;51.906;7.674;2023-08-08T12:00:28;24.70;95.10
11744;DHT22;5929;51.906;7.674;2023-08-08T12:02:56;24.50;94.70
11744;DHT22;5929;51.906;7.674;2023-08-08T12:05:23;25.10;94.60
11744;DHT22;5929;51.906;7.674;2023-08-08T12:07:50;26.10;92.90
11744;DHT22;5929;51.906;7.674;2023-08-08T12:10:19;25.40;92.30
11744;DHT22;5929;51.906;7.674;2023-08-08T12:12:53;25.60;93.00
11744;DHT22;5929;51.906;7.674;2023-08-08T12:15:20;25.10;93.30
11744;DHT22;5929;51.906;7.674;2023-08-08T12:17:47;25.30;92.30
11744;DHT22;5929;51.906;7.674;2023-08-08T12:20:14;25.20;91.30
11744;DHT22;5929;51.906;7.674;2023-08-08T12:22:42;23.20;92.80
11744;DHT22;5929;51.906;7.674;2023-08-08T12:25:09;22.50;95.10
11744;DHT22;5929;51.906;7.674;2023-08-08T12:27:35;23.80;94.10
11744;DHT22;5929;51.906;7.674;2023-08-08T12:30:07;22.80;95.50
11744;DHT22;5929;51.906;7.674;2023-08-08T12:32:33;24.00;93.30
11744;DHT22;5929;51.906;7.674;2023-08-08T12:35:00;23.20;94.50
11744;DHT22;5929;51.906;7.674;2023-08-08T12:37:27;21.20;97.20
11744;DHT22;5929;51.906;7.674;2023-08-08T12:39:54;20.30;99.90
11744;DHT22;5929;51.906;7.674;2023-08-08T12:42:22;20.40;99.90
11744;DHT22;5929;51.906;7.674;2023-08-08T12:44:48;23.10;98.00
11744;DHT22;5929;51.906;7.674;2023-08-08T12:47:18;22.40;98.50
11744;DHT22;5929;51.906;7.674;2023-08-08T12:49:46;23.40;96.60
11744;DHT22;5929;51.906;7.674;2023-08-08T12:52:15;24.10;95.90
11744;DHT22;5929;51.906;7.674;2023-08-08T12:54:42;25.50;94.10
11744;DHT22;5929;51.906;7.674;2023-08-08T12:57:09;24.10;94.80
11744;DHT22;5929;51.906;7.674;2023-08-08T12:59:36;24.30;95.10
11744;DHT22;5929;51.906;7.674;2023-08-08T13:02:03;22.40;96.50
11744;DHT22;5929;51.906;7.674;2023-08-08T13:04:31;23.00;97.40
11744;DHT22;5929;51.906;7.674;2023-08-08T13:06:58;23.20;96.80
11744;DHT22;5929;51.906;7.674;2023-08-08T13:09:25;23.50;96.10
11744;DHT22;5929;51.906;7.674;2023-08-08T13:11:52;23.10;95.40
11744;DHT22;5929;51.906;7.674;2023-08-08T13:14:19;21.10;97.60
11744;DHT22;5929;51.906;7.674;2023-08-08T13:16:45;20.00;99.60
11744;DHT22;5929;51.906;7.674;2023-08-08T13:19:12;19.70;99.90
11744;DHT22;5929;51.906;7.674;2023-08-08T13:21:42;21.50;99.90
11744;DHT22;5929;51.906;7.674;2023-08-08T13:24:09;23.70;95.90
11744;DHT22;5929;51.906;7.674;2023-08-08T13:26:38;24.20;94.30
11744;DHT22;5929;51.906;7.674;2023-08-08T13:29:05;21.50;96.70
11744;DHT22;5929;51.906;7.674;2023-08-08T13:31:32;20.60;98.00
11744;DHT22;5929;51.906;7.674;2023-08-08T13:33:59;20.80;99.30
11744;DHT22;5929;51.906;7.674;2023-08-08T13:36:26;21.40;97.80
11744;DHT22;5929;51.906;7.674;2023-08-08T13:38:54;21.90;96.70
11744;DHT22;5929;51.906;7.674;2023-08-08T13:41:21;21.00;96.90
11744;DHT22;5929;51.906;7.674;2023-08-08T13:43:48;20.30;97.60
11744;DHT22;5929;51.906;7.674;2023-08-08T13:46:15;20.50;98.40
11744;DHT22;5929;51.906;7.674;2023-08-08T13:48:42;20.60;98.30
11744;DHT22;5929;51.906;7.674;2023-08-08T13:51:09;21.60;97.20
11744;DHT22;5929;51.906;7.674;2023-08-08T13:53:36;21.40;97.30
11744;DHT22;5929;51.906;7.674;2023-08-08T13:56:04;21.30;97.50
11744;DHT22;5929;51.906;7.674;2023-08-08T13:58:31;21.60;97.60
11744;DHT22;5929;51.906;7.674;2023-08-08T14:00:58;21.60;96.50
11744;DHT22;5929;51.906;7.674;2023-08-08T14:03:25;21.80;97.40
11744;DHT22;5929;51.906;7.674;2023-08-08T14:05:51;22.70;97.80
11744;DHT22;5929;51.906;7.674;2023-08-08T14:08:19;22.50;97.10
11744;DHT22;5929;51.906;7.674;2023-08-08T14:10:46;22.50;97.30
11744;DHT22;5929;51.906;7.674;2023-08-08T14:13:15;23.10;96.30
11744;DHT22;5929;51.906;7.674;2023-08-08T14:15:41;22.00;97.00
11744;DHT22;5929;51.906;7.674;2023-08-08T14:18:08;22.40;97.00
11744;DHT22;5929;51.906;7.674;2023-08-08T14:20:36;22.70;96.20
11744;DHT22;5929;51.906;7.674;2023-08-08T14:23:03;22.10;97.10
11744;DHT22;5929;51.906;7.674;2023-08-08T14:25:31;22.00;96.40
11744;DHT22;5929;51.906;7.674;2023-08-08T14:27:58;21.80;96.40
11744;DHT22;5929;51.906;7.674;2023-08-08T14:30:26;22.00;96.40
11744;DHT22;5929;51.906;7.674;2023-08-08T14:32:53;21.90;96.00
11744;DHT22;5929;51.906;7.674;2023-08-08T14:35:20;21.00;97.80
11744;DHT22;5929;51.906;7.674;2023-08-08T14:37:47;20.40;99.00
11744;DHT22;5929;51.906;7.674;2023-08-08T14:40:14;20.20;99.90
11744;DHT22;5929;51.906;7.674;2023-08-08T14:42:41;19.80;99.90
11744;DHT22;5929;51.906;7.674;2023-08-08T14:45:09;19.80;99.90
11744;DHT22;5929;51.906;7.674;2023-08-08T14:47:37;19.90;99.90
11744;DHT22;5929;51.906;7.674;2023-08-08T14:50:06;20.10;99.90
11744;DHT22;5929;51.906;7.674;2023-08-08T14:52:33;20.40;99.80
11744;DHT22;5929;51.906;7.674;2023-08-08T14:55:01;19.80;99.90
11744;DHT22;5929;51.906;7.674;2023-08-08T14:57:28;19.90;99.90
11744;DHT22;5929;51.906;7.674;2023-08-08T14:59:57;20.10;99.90
11744;DHT22;5929;51.906;7.674;2023-08-08T15:02:24;20.30;99.90
11744;DHT22;5929;51.906;7.674;2023-08-08T15:04:52;20.10;99.90
11744;DHT22;5929;51.906;7.674;2023-08-08T15:07:19;20.10;99.90
11744;DHT22;5929;51.906;7.674;2023-08-08T15:09:46;20.50;99.90
11744;DHT22;5929;51.906;7.674;2023-08-08T15:12:15;20.50;99.60
11744;DHT22;5929;51.906;7.674;2023-08-08T15:14:42;20.70;99.90
11744;DHT22;5929;51.906;7.674;2023-08-08T15:17:08;20.60;99.90
11744;DHT22;5929;51.906;7.674;2023-08-08T15:19:35;20.30;99.90
11744;DHT22;5929;51.906;7.674;2023-08-08T15:22:07;20.10;99.90
11744;DHT22;5929;51.906;7.674;2023-08-08T15:24:34;19.90;99.70
11744;DHT22;5929;51.906;7.674;2023-08-08T15:27:02;19.70;99.90
11744;DHT22;5929;51.906;7.674;2023-08-08T15:29:31;19.90;99.90
11744;DHT22;5929;51.906;7.674;2023-08-08T15:31:58;20.90;98.80
11744;DHT22;5929;51.906;7.674;2023-08-08T15:34:25;21.40;97.90
11744;DHT22;5929;51.906;7.674;2023-08-08T15:36:54;21.10;99.10
11744;DHT22;5929;51.906;7.674;2023-08-08T15:39:25;21.30;98.20
11744;DHT22;5929;51.906;7.674;2023-08-08T15:41:52;21.40;97.80
11744;DHT22;5929;51.906;7.674;2023-08-08T15:44:21;21.20;97.30
11744;DHT22;5929;51.906;7.674;2023-08-08T15:46:48;20.70;97.70